Time;durP1;ratioP1;P1;durP2;ratioP2;P2;SDS_P1;SDS_P2;PMS_P1;PMS_P2;Temp;Humidity;BMP_temperature;BMP_pressure;BME280_temperature;BME280_humidity;BME280_pressure;Samples;Min_cycle;Max_cycle;Signal;HPM_P1;HPM_P2
2022/03/11 00:01:16;;;;;;;10.48;6.63;;;4.20;99.90;;;;;;5047523;28;20044;-60
2022/03/11 00:03:41;;;;;;;6.18;5.47;;;4.20;99.90;;;;;;5042061;28;20143;-60
2022/03/11 00:06:07;;;;;;;12.35;7.60;;;4.20;99.90;;;;;;5046942;28;20148;-60
2022/03/11 00:08:33;;;;;;;11.07;7.13;;;4.30;99.90;;;;;;5042760;28;20049;-60
2022/03/11 00:10:58;;;;;;;9.63;6.80;;;4.30;99.90;;;;;;5037982;28;20056;-61
2022/03/11 00:13:24;;;;;;;12.25;6.57;;;4.40;99.90;;;;;;5040785;28;20942;-61
2022/03/11 00:15:50;;;;;;;10.90;5.68;;;4.30;99.90;;;;;;5048667;28;20602;-60
2022/03/11 00:18:16;;;;;;;7.85;5.75;;;4.40;99.90;;;;;;5044501;28;20049;-60
2022/03/11 00:20:42;;;;;;;8.68;6.22;;;4.40;99.90;;;;;;5022907;28;20048;-60
2022/03/11 00:23:07;;;;;;;9.07;6.60;;;4.40;99.90;;;;;;5038532;28;20068;-61
2022/03/11 00:25:34;;;;;;;10.27;6.32;;;4.40;99.90;;;;;;5042286;28;20580;-59
2022/03/11 00:27:59;;;;;;;10.95;7.13;;;4.50;99.90;;;;;;5022686;28;20083;-59
2022/03/11 00:30:26;;;;;;;10.35;6.82;;;4.50;99.90;;;;;;5040969;28;20124;-59
2022/03/11 00:32:52;;;;;;;9.68;5.78;;;4.50;99.90;;;;;;5044243;28;20167;-59
2022/03/11 00:35:20;;;;;;;11.18;6.07;;;4.50;99.90;;;;;;5041957;28;20051;-60
2022/03/11 00:37:47;;;;;;;8.13;5.93;;;4.50;99.90;;;;;;5039908;28;20052;-59
2022/03/11 00:40:13;;;;;;;10.77;6.82;;;4.50;99.90;;;;;;5039401;28;20037;-60
2022/03/11 00:42:39;;;;;;;9.77;5.95;;;4.40;99.90;;;;;;5042195;28;20059;-60
2022/03/11 00:45:05;;;;;;;7.07;5.63;;;4.40;99.90;;;;;;5042073;28;20041;-60
2022/03/11 00:47:30;;;;;;;6.80;5.18;;;4.40;99.90;;;;;;5024543;28;20610;-60
2022/03/11 00:49:56;;;;;;;8.48;6.13;;;4.40;99.90;;;;;;5016526;28;20056;-60
2022/03/11 00:52:22;;;;;;;10.05;5.78;;;4.30;99.90;;;;;;5041994;28;20044;-61
2022/03/11 00:54:47;;;;;;;7.70;5.78;;;4.30;99.90;;;;;;5019240;28;20128;-60
2022/03/11 00:57:13;;;;;;;11.23;5.85;;;4.30;99.90;;;;;;5018762;28;20045;-60
2022/03/11 00:59:38;;;;;;;13.25;7.28;;;4.30;99.90;;;;;;5041985;28;20045;-60
2022/03/11 01:02:04;;;;;;;6.18;5.10;;;4.30;99.90;;;;;;5021564;28;20779;-61
2022/03/11 01:04:29;;;;;;;9.88;5.10;;;4.20;99.90;;;;;;5016419;28;20044;-60
2022/03/11 01:06:55;;;;;;;9.75;5.57;;;4.20;99.90;;;;;;5016484;28;20126;-60
2022/03/11 01:09:20;;;;;;;10.43;6.28;;;4.20;99.90;;;;;;5048262;28;20151;-61
2022/03/11 01:11:46;;;;;;;6.75;5.22;;;4.20;99.90;;;;;;5036421;28;20507;-60
2022/03/11 01:14:12;;;;;;;13.32;5.93;;;4.10;99.90;;;;;;5054882;28;20254;-61
2022/03/11 01:16:37;;;;;;;6.70;5.25;;;4.10;99.90;;;;;;5054097;28;20577;-60
2022/03/11 01:19:03;;;;;;;9.65;6.15;;;4.10;99.90;;;;;;5054287;28;20696;-60
2022/03/11 01:21:28;;;;;;;12.23;8.23;;;4.00;99.90;;;;;;5055165;28;20686;-61
2022/03/11 01:23:54;;;;;;;9.65;7.22;;;4.00;99.90;;;;;;5055222;28;20073;-60
2022/03/11 01:26:20;;;;;;;9.05;6.53;;;4.00;99.90;;;;;;5055261;28;20052;-60
2022/03/11 01:28:46;;;;;;;10.40;6.43;;;3.90;99.90;;;;;;5055910;28;20816;-61
2022/03/11 01:31:13;;;;;;;7.00;5.68;;;3.90;99.90;;;;;;5055875;28;20058;-60
2022/03/11 01:33:42;;;;;;;9.68;6.45;;;3.90;99.90;;;;;;5055217;28;20063;-61
2022/03/11 01:36:09;;;;;;;11.43;6.68;;;3.90;99.90;;;;;;5055503;28;20523;-60
2022/03/11 01:38:35;;;;;;;10.27;6.78;;;4.70;99.90;;;;;;5049958;28;20610;-60
2022/03/11 01:41:01;;;;;;;11.52;6.68;;;3.80;99.90;;;;;;5054294;28;20044;-60
2022/03/11 01:43:28;;;;;;;13.23;6.95;;;3.80;99.90;;;;;;5055567;28;20044;-61
2022/03/11 01:45:54;;;;;;;11.35;8.25;;;3.80;99.90;;;;;;5055021;28;20079;-61
2022/03/11 01:48:19;;;;;;;9.80;6.97;;;3.70;99.90;;;;;;5056068;28;20090;-60
2022/03/11 01:50:45;;;;;;;12.23;7.20;;;3.70;99.90;;;;;;5055375;28;20127;-61
2022/03/11 01:53:12;;;;;;;10.27;7.30;;;3.70;99.90;;;;;;5055168;28;20143;-60
2022/03/11 01:55:39;;;;;;;15.60;7.55;;;3.70;99.90;;;;;;5037090;28;20044;-59
2022/03/11 01:58:06;;;;;;;12.70;8.00;;;3.60;99.90;;;;;;5054302;28;20056;-59
2022/03/11 02:00:35;;;;;;;15.15;7.68;;;3.70;99.90;;;;;;5054562;28;20081;-61
2022/03/11 02:03:01;;;;;;;10.13;7.70;;;3.60;99.90;;;;;;5046566;28;20167;-61
2022/03/11 02:05:28;;;;;;;14.23;8.82;;;3.60;99.90;;;;;;5027000;28;20056;-61
2022/03/11 02:07:53;;;;;;;13.63;8.27;;;3.60;99.90;;;;;;5044153;28;20222;-60
2022/03/11 02:10:19;;;;;;;9.98;7.68;;;3.60;99.90;;;;;;5051706;28;20829;-60
2022/03/11 02:12:45;;;;;;;12.93;8.05;;;3.50;99.90;;;;;;5032363;28;20076;-61
2022/03/11 02:15:11;;;;;;;14.18;8.48;;;3.60;99.90;;;;;;5052972;28;20060;-61
2022/03/11 02:17:36;;;;;;;14.25;8.52;;;3.60;99.90;;;;;;5024263;28;20581;-60
2022/03/11 02:20:05;;;;;;;14.30;8.95;;;3.60;99.90;;;;;;5051000;28;20610;-60
2022/03/11 02:22:36;;;;;;;14.07;9.27;;;3.60;99.90;;;;;;5028207;28;20045;-61
2022/03/11 02:25:04;;;;;;;15.05;8.90;;;3.60;99.90;;;;;;5034483;28;20049;-60
2022/03/11 02:27:35;;;;;;;13.35;6.90;;;3.60;99.90;;;;;;5043637;28;20068;-60
2022/03/11 02:30:00;;;;;;;14.52;8.02;;;3.60;99.90;;;;;;5057915;28;20044;-60
2022/03/11 02:32:26;;;;;;;13.00;9.50;;;3.60;99.90;;;;;;5049245;28;20056;-61
2022/03/11 02:34:52;;;;;;;12.35;9.90;;;3.60;99.90;;;;;;5049703;28;20056;-61
2022/03/11 02:37:18;;;;;;;13.65;9.40;;;3.60;99.90;;;;;;5047494;28;20053;-61
2022/03/11 02:39:44;;;;;;;16.42;11.07;;;3.60;99.90;;;;;;5045646;28;20079;-61
2022/03/11 02:42:10;;;;;;;19.13;11.02;;;3.60;99.90;;;;;;5051437;28;20349;-61
2022/03/11 02:44:36;;;;;;;15.25;10.57;;;3.60;99.90;;;;;;5051684;28;20094;-61
2022/03/11 02:47:02;;;;;;;12.30;9.30;;;3.50;99.90;;;;;;5051751;28;20179;-61
2022/03/11 02:49:28;;;;;;;13.88;9.90;;;3.50;99.90;;;;;;5058016;28;20131;-61
2022/03/11 02:51:56;;;;;;;14.43;11.02;;;3.50;99.90;;;;;;5049590;28;20888;-61
2022/03/11 02:54:22;;;;;;;18.20;10.27;;;3.50;99.90;;;;;;5037086;28;20155;-61
2022/03/11 02:56:48;;;;;;;16.65;11.43;;;3.50;99.90;;;;;;5027183;28;20052;-61
2022/03/11 02:59:13;;;;;;;13.55;10.20;;;3.50;99.90;;;;;;5056087;28;20067;-61
2022/03/11 03:01:39;;;;;;;19.70;11.35;;;3.50;99.90;;;;;;5053729;28;20102;-61
2022/03/11 03:04:05;;;;;;;16.08;11.10;;;3.50;99.90;;;;;;5028042;28;20061;-60
2022/03/11 03:06:30;;;;;;;19.35;12.32;;;3.50;99.90;;;;;;5053300;28;20052;-59
2022/03/11 03:08:56;;;;;;;18.73;12.55;;;3.50;99.90;;;;;;5049456;28;20040;-59
2022/03/11 03:11:21;;;;;;;20.15;13.43;;;3.40;99.90;;;;;;5036846;28;20866;-61
2022/03/11 03:13:47;;;;;;;17.20;12.18;;;3.40;99.90;;;;;;5044811;28;20121;-59
2022/03/11 03:16:12;;;;;;;17.98;11.02;;;3.40;99.90;;;;;;5056477;28;20121;-59
2022/03/11 03:18:38;;;;;;;19.00;11.75;;;3.30;99.90;;;;;;5052681;28;20549;-61
2022/03/11 03:21:03;;;;;;;18.67;11.80;;;3.30;99.90;;;;;;5054192;28;21010;-61
2022/03/11 03:23:29;;;;;;;19.38;11.23;;;3.30;99.90;;;;;;5058029;28;20033;-61
2022/03/11 03:25:56;;;;;;;19.40;12.30;;;3.30;99.90;;;;;;5024909;28;20879;-61
2022/03/11 03:28:22;;;;;;;22.50;13.43;;;3.30;99.90;;;;;;5055453;28;21052;-61
2022/03/11 03:30:47;;;;;;;18.05;13.05;;;3.30;99.90;;;;;;5029997;28;20055;-61
2022/03/11 03:33:13;;;;;;;22.95;13.02;;;3.30;99.90;;;;;;5049216;28;20052;-61
2022/03/11 03:35:39;;;;;;;22.27;12.98;;;3.30;99.90;;;;;;5051495;28;20043;-61
2022/03/11 03:38:04;;;;;;;24.08;12.50;;;3.20;99.90;;;;;;5048674;28;20045;-61
2022/03/11 03:40:30;;;;;;;19.95;11.88;;;3.20;99.90;;;;;;5046076;28;20143;-61
2022/03/11 03:42:55;;;;;;;21.83;13.35;;;3.20;99.90;;;;;;5032490;28;20048;-61
2022/03/11 03:45:21;;;;;;;20.40;11.93;;;3.20;99.90;;;;;;5039377;28;20161;-60
2022/03/11 03:47:46;;;;;;;21.45;12.95;;;3.20;99.90;;;;;;5052680;28;20502;-60
2022/03/11 03:50:12;;;;;;;20.75;13.25;;;3.20;99.90;;;;;;5056001;28;20908;-61
2022/03/11 03:52:38;;;;;;;23.17;13.63;;;3.20;99.90;;;;;;5048917;28;20046;-61
2022/03/11 03:55:04;;;;;;;17.42;13.13;;;3.20;99.90;;;;;;5057211;28;20040;-60
2022/03/11 03:57:31;;;;;;;21.42;13.07;;;3.20;99.90;;;;;;5046554;28;20044;-61
2022/03/11 03:59:57;;;;;;;24.63;12.75;;;3.20;99.90;;;;;;5047743;28;20080;-61
2022/03/11 04:02:22;;;;;;;22.10;13.32;;;3.10;99.90;;;;;;5036500;28;20144;-61
2022/03/11 04:04:48;;;;;;;21.23;12.63;;;3.10;99.90;;;;;;5039912;28;20059;-60
2022/03/11 04:07:14;;;;;;;24.10;13.95;;;3.10;99.90;;;;;;5055769;28;20055;-60
2022/03/11 04:09:39;;;;;;;24.60;13.88;;;3.10;99.90;;;;;;5039404;28;20504;-60
2022/03/11 04:12:05;;;;;;;20.33;13.60;;;3.10;99.90;;;;;;5056761;28;20101;-60
2022/03/11 04:14:31;;;;;;;23.65;13.50;;;3.00;99.90;;;;;;5056209;28;20136;-60
2022/03/11 04:16:56;;;;;;;24.90;13.15;;;3.00;99.90;;;;;;5056985;28;20052;-60
2022/03/11 04:19:22;;;;;;;22.33;13.55;;;3.00;99.90;;;;;;5056958;28;20076;-60
2022/03/11 04:21:47;;;;;;;20.05;12.18;;;3.00;99.90;;;;;;5038479;28;20052;-61
2022/03/11 04:24:14;;;;;;;21.73;14.48;;;3.00;99.90;;;;;;5038650;28;20135;-61
2022/03/11 04:26:44;;;;;;;35.83;12.60;;;3.00;99.90;;;;;;5052628;28;20055;-60
2022/03/11 04:29:10;;;;;;;22.75;13.55;;;3.00;99.90;;;;;;5056050;28;20072;-60
2022/03/11 04:31:36;;;;;;;23.20;13.70;;;2.90;99.90;;;;;;5055976;28;20508;-60
2022/03/11 04:34:02;;;;;;;22.65;14.13;;;2.90;99.90;;;;;;5048131;28;20226;-60
2022/03/11 04:36:29;;;;;;;23.85;12.95;;;2.90;99.90;;;;;;5047687;28;20089;-60
2022/03/11 04:38:55;;;;;;;19.60;15.00;;;2.90;99.90;;;;;;5056141;28;20056;-60
2022/03/11 04:41:21;;;;;;;20.77;14.23;;;2.80;99.90;;;;;;5056321;28;20040;-61
2022/03/11 04:43:46;;;;;;;19.90;13.38;;;2.80;99.90;;;;;;5028236;28;20037;-60
2022/03/11 04:46:12;;;;;;;20.55;12.80;;;2.80;99.90;;;;;;5035593;28;20120;-61
2022/03/11 04:48:40;;;;;;;20.80;14.30;;;2.80;99.90;;;;;;5049412;28;20102;-60
2022/03/11 04:51:05;;;;;;;30.70;14.00;;;2.70;99.90;;;;;;5055060;28;20117;-60
2022/03/11 04:53:31;;;;;;;20.40;14.35;;;2.70;99.90;;;;;;5054535;28;20144;-60
2022/03/11 04:55:56;;;;;;;25.98;13.98;;;3.80;99.90;;;;;;5037167;28;20048;-60
2022/03/11 04:58:22;;;;;;;21.65;11.93;;;2.60;99.90;;;;;;5055499;28;20048;-60
2022/03/11 05:00:47;;;;;;;22.27;13.25;;;2.60;99.90;;;;;;5047208;28;20503;-60
2022/03/11 05:03:13;;;;;;;20.77;13.45;;;2.70;99.90;;;;;;5038731;28;20477;-61
2022/03/11 05:05:39;;;;;;;20.13;14.90;;;2.50;99.90;;;;;;5045951;28;20055;-62
2022/03/11 05:08:05;;;;;;;25.75;14.68;;;2.50;99.90;;;;;;5037875;28;20072;-60
2022/03/11 05:10:30;;;;;;;21.50;13.32;;;2.50;99.90;;;;;;5037031;28;20052;-59
2022/03/11 05:12:56;;;;;;;20.38;14.07;;;2.50;99.90;;;;;;5055307;28;20044;-60
2022/03/11 05:15:24;;;;;;;23.42;14.23;;;2.50;99.90;;;;;;5055718;28;20044;-61
2022/03/11 05:17:51;;;;;;;21.75;14.13;;;2.40;99.90;;;;;;5055000;28;20948;-60
2022/03/11 05:20:17;;;;;;;24.17;14.15;;;2.40;99.90;;;;;;5037614;28;20048;-61
2022/03/11 05:22:42;;;;;;;23.58;14.32;;;2.40;99.90;;;;;;5055342;28;20454;-61
2022/03/11 05:25:09;;;;;;;22.70;13.77;;;2.40;99.90;;;;;;5036722;28;20060;-62
2022/03/11 05:27:35;;;;;;;25.42;14.13;;;2.40;99.90;;;;;;5054776;28;20523;-59
2022/03/11 05:30:00;;;;;;;23.20;13.52;;;2.40;99.90;;;;;;5050938;28;20167;-60
2022/03/11 05:32:26;;;;;;;22.52;13.90;;;2.40;99.90;;;;;;5044247;28;20057;-59
2022/03/11 05:34:51;;;;;;;20.13;13.02;;;2.30;99.90;;;;;;5034459;28;20483;-60
2022/03/11 05:37:17;;;;;;;19.90;11.10;;;2.30;99.90;;;;;;5048140;28;20052;-60
2022/03/11 05:39:42;;;;;;;22.13;13.70;;;2.40;99.90;;;;;;5054390;28;20811;-60
2022/03/11 05:42:08;;;;;;;21.88;13.38;;;2.30;99.90;;;;;;5054731;28;20056;-61
2022/03/11 05:44:34;;;;;;;24.73;14.68;;;2.30;99.90;;;;;;5046434;28;20125;-60
2022/03/11 05:47:00;;;;;;;23.30;13.85;;;2.30;99.90;;;;;;5039065;28;20829;-60
2022/03/11 05:49:26;;;;;;;25.15;13.27;;;2.30;99.90;;;;;;5038480;28;20145;-61
2022/03/11 05:51:55;;;;;;;32.75;15.27;;;2.30;99.90;;;;;;5031944;28;20075;-61
2022/03/11 05:54:20;;;;;;;21.40;12.93;;;1.20;99.90;;;;;;5032213;28;20707;-61
2022/03/11 05:56:50;;;;;;;23.42;14.30;;;2.30;99.90;;;;;;5032641;28;20053;-61
2022/03/11 05:59:16;;;;;;;24.02;12.85;;;2.30;99.90;;;;;;5032718;28;20045;-61
2022/03/11 06:01:41;;;;;;;22.45;12.82;;;2.30;99.90;;;;;;5033890;28;20064;-61
2022/03/11 06:04:07;;;;;;;25.80;13.77;;;2.30;99.90;;;;;;5045688;28;20071;-61
2022/03/11 06:06:32;;;;;;;21.48;13.35;;;2.30;99.90;;;;;;5054041;28;20057;-61
2022/03/11 06:08:58;;;;;;;22.95;12.43;;;2.30;99.90;;;;;;5057012;28;20800;-61
2022/03/11 06:11:28;;;;;;;18.75;12.30;;;2.30;99.90;;;;;;5056133;28;20489;-61
2022/03/11 06:13:54;;;;;;;19.80;13.10;;;2.20;99.90;;;;;;5056038;28;20551;-61
2022/03/11 06:16:19;;;;;;;21.33;13.52;;;2.30;99.90;;;;;;5052723;28;20044;-61
2022/03/11 06:18:45;;;;;;;21.73;12.88;;;2.20;99.90;;;;;;5043194;28;20735;-61
2022/03/11 06:21:11;;;;;;;21.90;12.88;;;2.20;99.90;;;;;;5038810;28;20484;-61
2022/03/11 06:23:37;;;;;;;25.73;14.23;;;2.30;99.90;;;;;;5034438;28;20594;-61
2022/03/11 06:26:03;;;;;;;20.55;13.55;;;2.20;99.90;;;;;;5035308;28;20142;-62
2022/03/11 06:28:30;;;;;;;20.60;14.45;;;2.30;99.90;;;;;;5054870;28;20528;-61
2022/03/11 06:30:56;;;;;;;29.83;15.57;;;1.80;99.90;;;;;;5047582;28;20698;-61
2022/03/11 06:33:21;;;;;;;23.40;14.70;;;2.30;99.90;;;;;;5018553;28;20060;-61
2022/03/11 06:35:48;;;;;;;20.33;13.48;;;2.30;99.90;;;;;;5038247;28;20159;-61
2022/03/11 06:38:13;;;;;;;21.67;13.10;;;2.40;99.90;;;;;;5034108;28;20587;-61
2022/03/11 06:40:39;;;;;;;23.23;13.98;;;2.40;99.90;;;;;;5039817;28;20048;-61
2022/03/11 06:43:04;;;;;;;25.38;15.52;;;2.40;99.90;;;;;;5040446;28;20418;-61
2022/03/11 06:45:30;;;;;;;24.00;12.77;;;2.40;99.90;;;;;;5044032;28;20583;-61
2022/03/11 06:47:56;;;;;;;23.63;15.30;;;3.60;99.90;;;;;;5024697;28;20045;-61
2022/03/11 06:50:21;;;;;;;24.33;13.80;;;2.60;99.90;;;;;;5037568;28;20076;-61
2022/03/11 06:52:47;;;;;;;20.20;12.82;;;2.60;99.90;;;;;;5041622;28;20066;-59
2022/03/11 06:55:13;;;;;;;24.55;12.85;;;2.70;99.90;;;;;;5036469;28;20138;-59
2022/03/11 06:57:39;;;;;;;22.17;15.18;;;2.80;99.90;;;;;;5038073;28;20040;-59
2022/03/11 07:00:06;;;;;;;20.05;12.15;;;2.90;99.90;;;;;;5039932;28;20060;-60
2022/03/11 07:02:32;;;;;;;21.02;13.60;;;2.90;99.90;;;;;;5039968;28;20044;-60
2022/03/11 07:04:58;;;;;;;23.45;14.30;;;3.00;99.90;;;;;;5037222;28;20079;-60
2022/03/11 07:07:24;;;;;;;17.85;13.00;;;3.10;99.90;;;;;;5042064;28;20037;-60
2022/03/11 07:09:50;;;;;;;21.33;13.70;;;3.20;99.90;;;;;;5015336;28;20049;-60
2022/03/11 07:12:16;;;;;;;19.40;12.27;;;3.30;99.90;;;;;;5038477;28;20099;-60
2022/03/11 07:14:43;;;;;;;17.50;12.85;;;3.30;99.90;;;;;;5040507;28;20048;-60
2022/03/11 07:17:09;;;;;;;26.35;12.38;;;3.40;99.90;;;;;;5018199;28;20044;-60
2022/03/11 07:19:35;;;;;;;22.38;13.27;;;3.50;99.90;;;;;;5037325;28;20108;-60
2022/03/11 07:22:02;;;;;;;22.13;12.93;;;3.60;99.90;;;;;;5039650;28;20063;-60
2022/03/11 07:24:28;;;;;;;25.25;13.30;;;3.70;99.90;;;;;;5042668;28;20048;-60
2022/03/11 07:26:55;;;;;;;18.27;12.15;;;3.70;99.90;;;;;;5043905;28;20051;-60
2022/03/11 07:29:20;;;;;;;18.73;13.02;;;3.80;99.90;;;;;;5039710;28;20120;-60
2022/03/11 07:31:46;;;;;;;21.52;13.65;;;4.00;99.90;;;;;;5019401;28;20045;-60
2022/03/11 07:34:12;;;;;;;20.45;12.35;;;4.10;99.90;;;;;;5016346;28;20053;-60
2022/03/11 07:36:38;;;;;;;17.20;10.18;;;4.20;99.90;;;;;;5044360;28;20045;-59
2022/03/11 07:39:06;;;;;;;17.50;11.25;;;4.30;99.90;;;;;;5043577;28;20045;-60
2022/03/11 07:41:32;;;;;;;17.85;11.13;;;4.50;99.90;;;;;;5021030;28;20976;-60
2022/03/11 07:43:58;;;;;;;18.52;11.77;;;4.70;99.90;;;;;;5037944;28;20222;-60
2022/03/11 07:46:24;;;;;;;20.73;12.80;;;4.70;99.90;;;;;;5035861;28;20052;-60
2022/03/11 07:48:50;;;;;;;17.92;11.88;;;4.80;99.90;;;;;;5039224;28;20032;-60
2022/03/11 07:51:16;;;;;;;18.13;10.23;;;4.90;99.90;;;;;;5040775;28;20162;-60
2022/03/11 07:53:42;;;;;;;20.88;12.55;;;5.00;99.90;;;;;;5053828;28;20060;-60
2022/03/11 07:56:07;;;;;;;14.27;10.38;;;5.10;99.90;;;;;;5019558;28;20064;-60
2022/03/11 07:58:33;;;;;;;24.98;12.55;;;5.30;99.90;;;;;;5033440;28;20049;-61
2022/03/11 08:00:59;;;;;;;17.45;10.27;;;5.40;99.90;;;;;;5034140;28;20048;-60
2022/03/11 08:03:25;;;;;;;18.27;11.23;;;5.50;99.90;;;;;;5016604;28;20045;-60
2022/03/11 08:05:50;;;;;;;19.40;13.05;;;6.60;99.90;;;;;;5029279;28;20145;-60
2022/03/11 08:08:16;;;;;;;16.30;13.50;;;5.70;99.90;;;;;;5047354;28;20068;-60
2022/03/11 08:10:42;;;;;;;21.70;14.65;;;5.90;99.90;;;;;;5016828;28;20868;-60
2022/03/11 08:13:08;;;;;;;20.20;14.50;;;6.00;99.90;;;;;;5036236;28;20055;-61
2022/03/11 08:15:34;;;;;;;19.45;13.82;;;6.20;99.90;;;;;;5017558;28;20828;-61
2022/03/11 08:18:00;;;;;;;19.25;10.15;;;6.30;99.90;;;;;;5028210;28;20055;-61
2022/03/11 08:20:26;;;;;;;19.40;10.95;;;6.50;99.90;;;;;;5038210;28;20254;-61
2022/03/11 08:22:51;;;;;;;16.00;11.07;;;6.70;99.90;;;;;;5042043;28;20205;-61
2022/03/11 08:25:18;;;;;;;18.42;11.88;;;6.80;99.90;;;;;;5034520;28;20057;-61
2022/03/11 08:27:44;;;;;;;18.30;11.50;;;7.00;99.60;;;;;;5042216;28;20037;-61
2022/03/11 08:30:10;;;;;;;17.95;11.20;;;7.20;98.60;;;;;;5040228;28;20055;-60
2022/03/11 08:32:37;;;;;;;23.15;11.77;;;7.40;98.80;;;;;;5038978;28;20065;-61
2022/03/11 08:35:04;;;;;;;21.95;12.73;;;7.50;99.50;;;;;;5041416;28;20102;-60
2022/03/11 08:37:29;;;;;;;15.68;10.57;;;7.70;98.80;;;;;;5043258;28;20082;-60
2022/03/11 08:39:55;;;;;;;19.95;12.00;;;8.00;97.40;;;;;;5027334;28;20776;-60
2022/03/11 08:42:21;;;;;;;21.13;11.63;;;8.40;96.80;;;;;;5049353;28;20048;-62
2022/03/11 08:44:46;;;;;;;18.73;12.10;;;9.20;95.10;;;;;;5018555;28;20049;-60
2022/03/11 08:47:12;;;;;;;17.58;12.18;;;9.90;94.40;;;;;;5040036;28;20075;-61
2022/03/11 08:49:38;;;;;;;25.70;13.15;;;10.80;92.40;;;;;;5039412;28;20055;-62
2022/03/11 08:52:04;;;;;;;20.02;12.60;;;11.60;90.40;;;;;;5041208;28;20163;-61
2022/03/11 08:54:30;;;;;;;23.00;12.98;;;12.20;86.60;;;;;;5047574;28;20047;-61
2022/03/11 08:56:56;;;;;;;15.25;9.55;;;12.60;84.10;;;;;;5039335;28;20053;-60
2022/03/11 08:59:21;;;;;;;19.42;12.90;;;13.30;82.80;;;;;;5042457;28;20646;-60
2022/03/11 09:01:48;;;;;;;19.48;11.93;;;13.70;82.20;;;;;;5040443;28;20044;-60
2022/03/11 09:04:14;;;;;;;19.50;12.48;;;13.90;75.80;;;;;;5038896;28;20053;-61
2022/03/11 09:06:39;;;;;;;20.20;13.10;;;14.00;73.50;;;;;;5024579;28;20045;-60
2022/03/11 09:09:05;;;;;;;17.85;11.70;;;14.30;74.40;;;;;;5043428;28;20550;-60
2022/03/11 09:11:35;;;;;;;18.00;11.80;;;14.00;67.30;;;;;;5036749;28;20539;-61
2022/03/11 09:14:00;;;;;;;19.83;12.95;;;13.90;70.10;;;;;;5039157;28;20056;-60
2022/03/11 09:16:26;;;;;;;21.08;13.02;;;14.20;70.20;;;;;;5020986;28;20076;-61
2022/03/11 09:18:51;;;;;;;22.27;12.77;;;14.70;70.40;;;;;;5040999;28;20131;-60
2022/03/11 09:21:17;;;;;;;16.75;11.18;;;14.90;66.10;;;;;;5041858;28;20107;-61
2022/03/11 09:23:43;;;;;;;18.77;12.18;;;14.60;63.20;;;;;;5044640;28;20045;-61
2022/03/11 09:26:09;;;;;;;16.80;11.48;;;14.60;64.20;;;;;;5037041;28;20713;-61
2022/03/11 09:28:35;;;;;;;19.73;12.43;;;14.90;64.20;;;;;;5037171;28;20044;-61
2022/03/11 09:31:08;;;;;;;18.00;12.32;;;15.00;61.90;;;;;;5042260;28;20044;-60
2022/03/11 09:33:40;;;;;;;17.00;11.45;;;15.20;61.70;;;;;;5041903;28;20052;-60
2022/03/11 09:36:06;;;;;;;21.33;13.73;;;15.40;62.60;;;;;;5037110;28;20079;-61
2022/03/11 09:38:33;;;;;;;17.58;13.50;;;15.70;62.10;;;;;;5038540;28;20044;-60
2022/03/11 09:41:01;;;;;;;10.80;9.25;;;15.70;59.60;;;;;;5040842;28;20045;-60
2022/03/11 09:43:27;;;;;;;18.45;14.18;;;15.50;58.20;;;;;;5046326;28;20779;-60
2022/03/11 09:45:53;;;;;;;19.38;13.43;;;15.20;57.00;;;;;;5042426;28;20059;-61
2022/03/11 09:48:20;;;;;;;18.20;13.40;;;14.80;57.30;;;;;;5022130;28;20049;-61
2022/03/11 09:50:46;;;;;;;21.88;14.07;;;15.00;58.70;;;;;;5038391;28;20115;-61
2022/03/11 09:53:12;;;;;;;20.00;13.15;;;15.10;58.10;;;;;;5038248;28;20510;-61
2022/03/11 09:55:39;;;;;;;20.98;13.40;;;15.60;58.40;;;;;;5034792;28;20036;-61
2022/03/11 09:58:05;;;;;;;15.10;10.70;;;15.70;57.10;;;;;;5041891;28;20045;-61
2022/03/11 10:00:30;;;;;;;18.85;11.55;;;15.90;57.00;;;;;;5035661;28;20499;-61
2022/03/11 10:02:57;;;;;;;15.60;11.40;;;15.80;56.20;;;;;;4692521;28;10000599;-60
2022/03/11 10:05:23;;;;;;;18.20;12.40;;;15.80;55.50;;;;;;5036414;28;20048;-61
2022/03/11 10:08:04;;;;;;;18.92;13.95;;;15.90;55.60;;;;;;5033900;28;20060;-62
2022/03/11 10:10:30;;;;;;;20.10;13.52;;;16.20;55.40;;;;;;5033191;28;20048;-61
2022/03/11 10:12:56;;;;;;;17.23;12.52;;;16.50;56.00;;;;;;5031746;28;20056;-60
2022/03/11 10:15:28;;;;;;;16.70;12.88;;;16.30;54.70;;;;;;5041722;28;20041;-62
2022/03/11 10:17:54;;;;;;;20.10;13.40;;;16.20;53.90;;;;;;5039338;28;20523;-61
2022/03/11 10:20:20;;;;;;;17.23;12.73;;;16.10;53.50;;;;;;5038501;28;20036;-60
2022/03/11 10:22:45;;;;;;;18.25;13.80;;;16.10;53.00;;;;;;5032086;28;20836;-60
2022/03/11 10:25:19;;;;;;;20.55;13.05;;;16.30;53.20;;;;;;5034159;28;20049;-60
2022/03/11 10:27:58;;;;;;;18.05;12.30;;;16.30;53.00;;;;;;5012309;28;20102;-60
2022/03/11 10:30:26;;;;;;;17.40;11.52;;;16.40;52.40;;;;;;5033756;28;20453;-62
2022/03/11 10:32:53;;;;;;;15.88;11.32;;;16.40;52.40;;;;;;5039202;28;20061;-61
2022/03/11 10:35:19;;;;;;;20.48;12.23;;;16.60;52.10;;;;;;5032710;28;20047;-60
2022/03/11 10:38:08;;;;;;;20.40;13.38;;;16.50;50.70;;;;;;5042435;28;20839;-62
2022/03/11 10:40:36;;;;;;;18.17;12.68;;;16.50;50.20;;;;;;5040583;28;20040;-61
2022/03/11 10:43:08;;;;;;;15.05;10.95;;;17.10;51.00;;;;;;5034984;28;20045;-62
2022/03/11 10:45:45;;;;;;;16.17;11.63;;;17.70;50.70;;;;;;5029583;28;20090;-62
2022/03/11 10:48:11;;;;;;;19.92;12.90;;;17.50;50.20;;;;;;5044810;28;20857;-62
2022/03/11 10:50:36;;;;;;;20.95;13.45;;;17.30;49.90;;;;;;5017151;28;20055;-61
2022/03/11 10:53:07;;;;;;;18.90;12.15;;;17.00;50.60;;;;;;5040560;28;20036;-61
2022/03/11 10:55:39;;;;;;;19.25;12.68;;;16.20;49.90;;;;;;5018795;28;20060;-62
2022/03/11 10:58:10;;;;;;;17.65;10.30;;;14.80;50.90;;;;;;5015016;28;20084;-62
2022/03/11 11:00:40;;;;;;;19.08;12.65;;;14.20;52.00;;;;;;5015659;28;20090;-62
2022/03/11 11:03:08;;;;;;;21.00;13.60;;;12.60;53.50;;;;;;5039866;28;20388;-62
2022/03/11 11:05:35;;;;;;;21.65;12.68;;;12.10;54.80;;;;;;5037805;28;20044;-62
2022/03/11 11:08:02;;;;;;;15.70;13.18;;;11.60;55.00;;;;;;5036396;28;20114;-62
2022/03/11 11:10:31;;;;;;;17.70;12.32;;;11.30;56.20;;;;;;5037793;28;20039;-61
2022/03/11 11:12:58;;;;;;;21.25;11.85;;;11.20;57.30;;;;;;5035003;28;20470;-62
2022/03/11 11:15:24;;;;;;;18.95;12.80;;;11.10;57.90;;;;;;5020127;28;20493;-61
2022/03/11 11:17:51;;;;;;;16.52;12.65;;;11.00;58.50;;;;;;5033946;28;20172;-61
2022/03/11 11:20:39;;;;;;;21.15;12.00;;;10.90;58.50;;;;;;5026750;28;20045;-62
2022/03/11 11:23:07;;;;;;;18.50;11.80;;;11.00;59.60;;;;;;5034455;28;20915;-62
2022/03/11 11:25:34;;;;;;;20.90;13.02;;;11.00;60.20;;;;;;5043897;28;20834;-61
2022/03/11 11:28:08;;;;;;;22.95;12.27;;;11.00;60.10;;;;;;5017168;28;20051;-61
2022/03/11 11:30:35;;;;;;;16.70;11.65;;;10.90;60.20;;;;;;5033698;28;20037;-61
2022/03/11 11:33:01;;;;;;;14.50;8.68;;;10.90;59.70;;;;;;5033986;28;20274;-62
2022/03/11 11:35:35;;;;;;;18.10;12.68;;;10.90;59.70;;;;;;5035428;28;20033;-61
2022/03/11 11:38:07;;;;;;;19.95;11.88;;;10.90;59.70;;;;;;5037908;28;20052;-61
2022/03/11 11:40:38;;;;;;;16.90;10.93;;;10.80;59.70;;;;;;5034925;28;20197;-61
2022/03/11 11:43:26;;;;;;;18.60;11.65;;;10.80;60.00;;;;;;5019573;28;20901;-61
2022/03/11 11:46:11;;;;;;;16.55;11.32;;;10.80;61.20;;;;;;5036710;28;20049;-62
2022/03/11 11:48:42;;;;;;;15.57;10.57;;;11.60;61.40;;;;;;5031212;28;20044;-60
2022/03/11 11:51:13;;;;;;;17.95;11.20;;;10.90;60.20;;;;;;5038974;28;20139;-60
2022/03/11 11:53:42;;;;;;;16.45;9.32;;;11.00;59.40;;;;;;5048327;28;20080;-62
2022/03/11 11:56:34;;;;;;;17.95;11.63;;;11.00;59.30;;;;;;5042388;28;20048;-62
2022/03/11 11:59:02;;;;;;;21.05;11.25;;;11.10;59.80;;;;;;5028135;28;20065;-62
2022/03/11 12:01:43;;;;;;;18.70;11.95;;;11.20;60.60;;;;;;5035792;28;20045;-59
2022/03/11 12:04:35;;;;;;;15.07;11.15;;;11.30;60.00;;;;;;5036656;28;20056;-60
2022/03/11 12:07:13;;;;;;;18.13;11.80;;;11.50;59.40;;;;;;5035821;28;20041;-60
2022/03/11 12:09:42;;;;;;;16.67;9.65;;;11.50;59.20;;;;;;5040034;28;20091;-60
2022/03/11 12:12:26;;;;;;;16.60;9.38;;;11.50;58.70;;;;;;5044858;28;20053;-59
2022/03/11 12:14:57;;;;;;;17.90;11.27;;;11.50;58.00;;;;;;5036524;28;20098;-60
2022/03/11 12:17:51;;;;;;;15.45;9.85;;;11.40;58.30;;;;;;5036354;28;20045;-60
2022/03/11 12:20:32;;;;;;;;;;;11.50;57.50;;;;;;5046966;28;20098;-60
2022/03/11 12:23:09;;;;;;;18.10;12.20;;;11.40;57.30;;;;;;5040862;28;20058;-60
2022/03/11 12:25:44;;;;;;;17.40;10.85;;;11.60;58.70;;;;;;5055830;28;20455;-60
2022/03/11 12:28:17;;;;;;;17.33;10.90;;;11.70;58.70;;;;;;5055680;28;20818;-60
2022/03/11 12:30:55;;;;;;;;;;;11.80;58.90;;;;;;5055417;28;20119;-59
2022/03/11 12:33:30;;;;;;;14.50;9.48;;;11.80;58.50;;;;;;5053403;28;20379;-61
2022/03/11 12:36:00;;;;;;;14.52;8.85;;;11.80;57.70;;;;;;5035549;28;20125;-61
2022/03/11 12:38:29;;;;;;;16.08;10.52;;;11.80;57.40;;;;;;5053414;28;20056;-61